Time;durP1;ratioP1;P1;durP2;ratioP2;P2;SDS_P1;SDS_P2;PMS_P1;PMS_P2;Temp;Humidity;BMP_temperature;BMP_pressure;BME280_temperature;BME280_humidity;BME280_pressure;Samples;Min_cycle;Max_cycle;Signal;HPM_P1;HPM_P2
2021/05/28 00:00:32;;;;;;;9.77;3.70;;;14.70;96.70;;;;;;4338532;32;20071;-63
2021/05/28 00:02:58;;;;;;;8.45;4.03;;;14.70;98.00;;;;;;4338643;32;20072;-64
2021/05/28 00:05:24;;;;;;;13.98;4.28;;;14.80;97.80;;;;;;4377131;32;20453;-63
2021/05/28 00:07:51;;;;;;;9.38;4.22;;;14.70;98.00;;;;;;4350921;32;20147;-64
2021/05/28 00:10:17;;;;;;;13.50;4.72;;;14.60;99.20;;;;;;4376984;32;20086;-63
2021/05/28 00:12:43;;;;;;;11.90;5.05;;;14.60;99.90;;;;;;4363009;32;20054;-64
2021/05/28 00:15:12;;;;;;;11.32;4.40;;;14.40;99.90;;;;;;4375406;32;20189;-63
2021/05/28 00:17:38;;;;;;;12.35;4.45;;;14.40;99.90;;;;;;4362985;32;20062;-63
2021/05/28 00:20:07;;;;;;;12.05;4.62;;;14.40;99.90;;;;;;4349969;32;20488;-63
2021/05/28 00:22:34;;;;;;;10.25;4.25;;;14.10;99.90;;;;;;4375662;32;20076;-63
2021/05/28 00:25:00;;;;;;;7.12;3.92;;;14.00;99.90;;;;;;4380772;32;20496;-64
2021/05/28 00:27:31;;;;;;;6.40;3.80;;;14.00;99.90;;;;;;4363062;32;20066;-62
2021/05/28 00:30:00;;;;;;;7.57;3.60;;;14.00;99.90;;;;;;4351147;32;20082;-62
2021/05/28 00:32:27;;;;;;;4.93;3.53;;;14.00;99.90;;;;;;4375353;32;20093;-63
2021/05/28 00:34:54;;;;;;;4.53;3.10;;;14.00;99.90;;;;;;4350425;32;20143;-63
2021/05/28 00:37:20;;;;;;;6.00;3.37;;;14.00;99.90;;;;;;4363737;32;20534;-63
2021/05/28 00:39:46;;;;;;;5.75;3.25;;;13.90;99.90;;;;;;4360079;32;20066;-64
2021/05/28 00:42:13;;;;;;;10.60;3.17;;;13.90;99.90;;;;;;4347911;32;20159;-64
2021/05/28 00:44:39;;;;;;;6.15;3.10;;;14.00;99.90;;;;;;4360469;32;20059;-63
2021/05/28 00:47:06;;;;;;;4.82;2.75;;;13.80;99.90;;;;;;4347683;32;20081;-63
2021/05/28 00:49:32;;;;;;;4.70;2.58;;;13.60;99.90;;;;;;4360326;32;20075;-64
2021/05/28 00:51:59;;;;;;;6.37;3.08;;;13.70;99.90;;;;;;4347693;32;20078;-63
2021/05/28 00:54:25;;;;;;;4.87;2.75;;;13.70;99.90;;;;;;4360054;32;20071;-64
2021/05/28 00:56:51;;;;;;;5.93;3.15;;;13.60;99.90;;;;;;4348349;32;20177;-64
2021/05/28 00:59:18;;;;;;;5.72;3.53;;;13.70;99.90;;;;;;4347814;32;20594;-63
2021/05/28 01:01:48;;;;;;;4.22;3.00;;;13.70;99.90;;;;;;4360444;32;20074;-64
2021/05/28 01:04:14;;;;;;;5.45;2.90;;;13.60;99.90;;;;;;4347914;32;20066;-63
2021/05/28 01:06:41;;;;;;;6.10;3.37;;;13.60;99.90;;;;;;4360039;32;20059;-63
2021/05/28 01:09:08;;;;;;;4.22;2.40;;;13.60;99.90;;;;;;4359709;32;20136;-63
2021/05/28 01:11:35;;;;;;;4.60;2.83;;;13.70;99.90;;;;;;4360387;32;20145;-63
2021/05/28 01:14:01;;;;;;;8.55;3.20;;;13.50;99.90;;;;;;4360056;32;20240;-64
2021/05/28 01:16:28;;;;;;;7.32;3.20;;;13.50;99.90;;;;;;4347841;32;20461;-63
2021/05/28 01:18:54;;;;;;;5.47;2.95;;;13.60;99.90;;;;;;4359980;32;20075;-63
2021/05/28 01:21:21;;;;;;;6.15;3.35;;;13.70;99.90;;;;;;4359607;32;20070;-62
2021/05/28 01:23:48;;;;;;;7.45;3.40;;;13.80;99.90;;;;;;4347616;32;20162;-64
2021/05/28 01:26:14;;;;;;;7.80;3.40;;;13.70;99.90;;;;;;4347733;32;20494;-64
2021/05/28 01:28:41;;;;;;;5.07;3.10;;;13.70;99.90;;;;;;4372382;32;20112;-63
2021/05/28 01:31:08;;;;;;;6.60;3.58;;;13.70;99.90;;;;;;4372319;32;20077;-63
2021/05/28 01:33:35;;;;;;;8.43;3.03;;;13.80;99.90;;;;;;4360081;32;20078;-62
2021/05/28 01:36:01;;;;;;;5.70;3.20;;;13.90;99.90;;;;;;4359922;32;20085;-63
2021/05/28 01:38:27;;;;;;;6.05;2.65;;;13.70;99.90;;;;;;4359505;32;20105;-62
2021/05/28 01:40:54;;;;;;;6.18;2.97;;;13.80;99.90;;;;;;4347701;32;20154;-64
2021/05/28 01:43:20;;;;;;;4.20;2.75;;;14.00;99.90;;;;;;4347447;32;20075;-63
2021/05/28 01:45:46;;;;;;;6.20;3.00;;;14.00;99.90;;;;;;4347228;32;20085;-63
2021/05/28 01:48:12;;;;;;;9.38;2.97;;;13.90;99.90;;;;;;4347462;32;20194;-64
2021/05/28 01:50:45;;;;;;;6.72;2.78;;;13.90;99.90;;;;;;4359683;32;20062;-63
2021/05/28 01:53:22;;;;;;;7.97;2.60;;;14.10;99.90;;;;;;4336723;32;20099;-63
2021/05/28 01:55:48;;;;;;;4.95;2.78;;;14.10;99.90;;;;;;4350101;32;20075;-63
2021/05/28 01:58:18;;;;;;;10.80;4.15;;;13.90;99.90;;;;;;4358801;32;20082;-62
2021/05/28 02:00:46;;;;;;;6.15;3.30;;;13.90;99.90;;;;;;4362062;32;20468;-63
2021/05/28 02:03:13;;;;;;;8.18;3.40;;;14.00;99.90;;;;;;4374851;32;20074;-64
2021/05/28 02:05:39;;;;;;;7.15;2.92;;;14.00;99.90;;;;;;4350247;32;20159;-64
2021/05/28 02:08:06;;;;;;;7.37;3.45;;;14.20;99.90;;;;;;4353027;32;20089;-63
2021/05/28 02:10:33;;;;;;;5.60;2.80;;;14.20;99.90;;;;;;4340616;32;20066;-62
2021/05/28 02:13:00;;;;;;;5.40;2.97;;;14.30;99.90;;;;;;4353072;32;20170;-63
2021/05/28 02:15:26;;;;;;;5.22;2.95;;;14.40;99.90;;;;;;4365639;32;20090;-63
2021/05/28 02:17:53;;;;;;;6.65;2.65;;;14.40;99.90;;;;;;4364886;32;20527;-65
2021/05/28 02:20:20;;;;;;;6.93;2.62;;;14.50;99.90;;;;;;4364809;32;20070;-63
2021/05/28 02:22:46;;;;;;;4.97;2.75;;;14.60;99.90;;;;;;4352639;32;20085;-64
2021/05/28 02:25:13;;;;;;;3.45;2.40;;;14.50;99.90;;;;;;4340103;32;20073;-64
2021/05/28 02:27:40;;;;;;;5.10;2.50;;;14.60;99.90;;;;;;4364748;32;20074;-63
2021/05/28 02:30:07;;;;;;;5.03;2.50;;;14.70;99.90;;;;;;4364482;32;20198;-62
2021/05/28 02:32:34;;;;;;;5.18;2.50;;;14.70;99.90;;;;;;4352446;32;20070;-64
2021/05/28 02:35:00;;;;;;;4.00;2.22;;;14.70;99.90;;;;;;4377320;32;20070;-64
2021/05/28 02:37:26;;;;;;;4.53;2.37;;;14.80;99.90;;;;;;4362098;32;20515;-63
2021/05/28 02:39:52;;;;;;;3.10;2.00;;;14.70;99.90;;;;;;4362502;32;20504;-63
2021/05/28 02:42:19;;;;;;;6.97;2.62;;;15.00;99.90;;;;;;4350022;32;20157;-63
2021/05/28 02:44:45;;;;;;;3.17;2.20;;;15.20;99.90;;;;;;4349726;32;20176;-63
2021/05/28 02:47:11;;;;;;;4.90;2.05;;;15.10;99.90;;;;;;4361910;32;20529;-64
2021/05/28 02:49:37;;;;;;;4.12;2.20;;;15.10;99.90;;;;;;4350147;32;20067;-64
2021/05/28 02:52:04;;;;;;;5.62;2.08;;;15.20;99.90;;;;;;4361944;32;20096;-62
2021/05/28 02:54:30;;;;;;;4.03;2.20;;;15.10;99.90;;;;;;4361950;32;20071;-63
2021/05/28 02:56:57;;;;;;;5.80;2.00;;;15.10;99.90;;;;;;4350415;32;20078;-63
2021/05/28 02:59:23;;;;;;;5.28;2.00;;;15.20;99.90;;;;;;4361530;32;20066;-63
2021/05/28 03:01:49;;;;;;;4.57;2.20;;;15.40;99.90;;;;;;4361362;32;20098;-63
2021/05/28 03:04:16;;;;;;;5.87;3.10;;;15.40;99.90;;;;;;4361725;32;20149;-64
2021/05/28 03:06:43;;;;;;;7.50;2.62;;;15.50;99.90;;;;;;4337331;32;20082;-62
2021/05/28 03:09:09;;;;;;;4.78;2.12;;;15.50;99.90;;;;;;4361771;32;20101;-64
2021/05/28 03:11:35;;;;;;;4.95;2.22;;;15.60;99.90;;;;;;4361540;32;20098;-63
2021/05/28 03:14:02;;;;;;;4.62;2.05;;;15.70;99.90;;;;;;4361288;32;20066;-62
2021/05/28 03:16:28;;;;;;;2.47;1.92;;;15.80;99.90;;;;;;4361803;32;20074;-64
2021/05/28 03:19:00;;;;;;;3.97;2.25;;;15.90;99.90;;;;;;4349052;32;20081;-63
2021/05/28 03:24:00;;;;;;;4.20;2.70;;;16.00;99.90;;;;;;4361290;32;20510;-64
2021/05/28 03:26:27;;;;;;;5.18;2.95;;;16.20;99.90;;;;;;4349202;32;20239;-64
2021/05/28 03:28:54;;;;;;;6.80;2.55;;;16.20;99.90;;;;;;4336567;32;20090;-63
2021/05/28 03:31:21;;;;;;;6.93;2.62;;;16.20;99.90;;;;;;4348632;32;20074;-64
2021/05/28 03:33:47;;;;;;;7.80;3.37;;;16.20;99.90;;;;;;4361447;32;20081;-64
2021/05/28 03:36:14;;;;;;;8.10;3.03;;;16.30;99.90;;;;;;4361371;32;20505;-64
2021/05/28 03:38:40;;;;;;;4.80;3.03;;;16.40;99.90;;;;;;4336509;32;20163;-63
2021/05/28 03:43:47;;;;;;;5.70;3.17;;;16.60;99.90;;;;;;3857212;37;20058;-63
2021/05/28 03:46:13;;;;;;;7.43;3.00;;;16.70;99.90;;;;;;4418322;32;20069;-63
2021/05/28 03:48:39;;;;;;;5.00;2.60;;;16.90;99.90;;;;;;4418234;32;20084;-63
2021/05/28 03:51:05;;;;;;;7.82;3.90;;;17.10;99.90;;;;;;4405597;32;20101;-64
2021/05/28 03:53:31;;;;;;;7.32;4.03;;;17.10;99.40;;;;;;4418192;32;20154;-62
2021/05/28 03:55:58;;;;;;;7.70;3.75;;;17.20;98.20;;;;;;4392847;32;20132;-63
2021/05/28 03:58:24;;;;;;;12.85;4.40;;;17.20;98.50;;;;;;4405861;32;20081;-63
2021/05/28 04:00:50;;;;;;;8.95;4.75;;;17.50;98.30;;;;;;4418542;32;20058;-62
2021/05/28 04:03:17;;;;;;;10.35;4.50;;;17.50;97.30;;;;;;4397451;32;20081;-63
2021/05/28 04:05:43;;;;;;;16.17;8.30;;;17.50;96.20;;;;;;4418236;32;20076;-63
2021/05/28 04:08:09;;;;;;;16.42;8.90;;;17.70;95.60;;;;;;4417969;32;20537;-65
2021/05/28 04:10:35;;;;;;;21.33;10.30;;;17.70;94.30;;;;;;4392887;32;20073;-63
2021/05/28 04:13:01;;;;;;;13.50;6.97;;;17.80;94.10;;;;;;4392987;32;20128;-62
2021/05/28 04:15:27;;;;;;;10.57;6.40;;;18.00;94.60;;;;;;4405284;32;20076;-64
2021/05/28 04:17:54;;;;;;;20.23;8.57;;;18.00;95.10;;;;;;4418303;32;20083;-62
2021/05/28 04:20:20;;;;;;;16.60;8.25;;;18.10;92.40;;;;;;4405026;32;20057;-65
2021/05/28 04:22:46;;;;;;;14.30;7.78;;;18.10;89.60;;;;;;4417720;32;20152;-64
2021/05/28 04:25:13;;;;;;;15.68;7.82;;;18.30;86.20;;;;;;4405469;32;20088;-64
2021/05/28 04:27:39;;;;;;;17.73;8.40;;;18.40;85.10;;;;;;4392447;32;20169;-64
2021/05/28 04:30:06;;;;;;;17.05;8.27;;;19.90;70.20;;;;;;4418027;32;20512;-63
2021/05/28 04:32:33;;;;;;;12.27;7.95;;;22.00;52.60;;;;;;4380331;32;20077;-63
2021/05/28 04:35:00;;;;;;;18.27;9.18;;;23.20;45.30;;;;;;4417402;32;20085;-64
2021/05/28 04:37:26;;;;;;;17.15;8.23;;;23.10;41.20;;;;;;4389751;32;20062;-64
2021/05/28 04:39:52;;;;;;;20.70;9.10;;;23.30;43.50;;;;;;4389773;32;20476;-63
2021/05/28 04:42:19;;;;;;;14.25;7.22;;;24.30;40.90;;;;;;4402699;32;20077;-62
2021/05/28 04:44:45;;;;;;;16.70;8.23;;;23.50;41.20;;;;;;4391149;32;20065;-63
2021/05/28 04:47:11;;;;;;;17.50;8.63;;;23.40;40.30;;;;;;4402470;32;20512;-63
2021/05/28 04:49:37;;;;;;;19.08;7.87;;;23.10;40.00;;;;;;4389892;32;20085;-64
2021/05/28 04:52:04;;;;;;;15.23;8.02;;;23.90;39.00;;;;;;4401910;32;20058;-64
2021/05/28 04:54:30;;;;;;;13.05;7.15;;;24.30;36.50;;;;;;4369369;32;20544;-62
2021/05/28 04:56:56;;;;;;;16.02;6.20;;;23.40;39.40;;;;;;4392029;32;20468;-63
2021/05/28 04:59:22;;;;;;;14.07;6.93;;;24.70;36.90;;;;;;4367238;32;20078;-64
2021/05/28 05:01:49;;;;;;;16.75;6.78;;;24.40;35.10;;;;;;4379517;32;20093;-64
2021/05/28 05:04:15;;;;;;;15.48;6.90;;;24.50;36.70;;;;;;4392154;32;20074;-63
2021/05/28 05:06:41;;;;;;;11.70;6.22;;;25.10;35.50;;;;;;4379232;32;20602;-63
2021/05/28 05:09:08;;;;;;;13.80;7.45;;;25.40;34.60;;;;;;4366979;32;20082;-64
2021/05/28 05:11:34;;;;;;;14.77;7.03;;;24.80;33.20;;;;;;4366909;32;20066;-63
2021/05/28 05:14:00;;;;;;;14.93;6.90;;;24.90;35.00;;;;;;4389322;32;20071;-64
2021/05/28 05:16:26;;;;;;;14.35;6.07;;;25.10;34.70;;;;;;4376519;32;20089;-63
2021/05/28 05:18:53;;;;;;;16.45;7.18;;;25.20;34.70;;;;;;4351687;32;20062;-64
2021/05/28 05:21:19;;;;;;;17.27;7.95;;;25.40;33.60;;;;;;4364081;32;20170;-62
2021/05/28 05:23:45;;;;;;;13.57;7.05;;;24.40;34.90;;;;;;4376833;32;20054;-64
2021/05/28 05:26:11;;;;;;;19.92;7.53;;;25.20;34.50;;;;;;4376472;32;20078;-64
2021/05/28 05:28:37;;;;;;;18.20;8.32;;;25.60;31.70;;;;;;4376923;32;20073;-64
2021/05/28 05:31:04;;;;;;;19.37;8.52;;;25.00;33.60;;;;;;4364019;32;20186;-64
2021/05/28 05:33:30;;;;;;;17.00;8.88;;;25.70;32.90;;;;;;4363933;32;20155;-64
2021/05/28 05:35:56;;;;;;;17.60;8.27;;;25.70;32.00;;;;;;4376023;32;20512;-63
2021/05/28 05:38:23;;;;;;;15.75;8.73;;;25.80;32.00;;;;;;4385080;32;20501;-69
2021/05/28 05:40:49;;;;;;;19.48;8.30;;;25.40;31.10;;;;;;4360167;32;20074;-63
2021/05/28 05:43:15;;;;;;;13.30;5.87;;;25.40;32.50;;;;;;4366110;32;20100;-66
2021/05/28 05:45:42;;;;;;;11.90;5.53;;;25.90;32.10;;;;;;4379261;32;20744;-66
2021/05/28 05:48:09;;;;;;;11.60;5.30;;;25.50;32.50;;;;;;4364169;32;20141;-63
2021/05/28 05:50:35;;;;;;;11.73;4.40;;;26.60;30.20;;;;;;4364215;32;20096;-63
2021/05/28 05:53:01;;;;;;;9.30;4.97;;;26.20;30.10;;;;;;4384383;32;20489;-65
2021/05/28 05:55:28;;;;;;;13.48;4.12;;;26.40;30.90;;;;;;4390023;32;20100;-64
2021/05/28 05:57:54;;;;;;;10.63;4.50;;;26.00;29.80;;;;;;4369885;32;20544;-65
2021/05/28 06:00:21;;;;;;;5.15;3.50;;;26.70;29.50;;;;;;4374479;32;20066;-62
2021/05/28 06:02:47;;;;;;;8.15;3.78;;;27.20;27.90;;;;;;4376369;32;20088;-62
2021/05/28 06:05:14;;;;;;;6.10;3.25;;;27.50;28.00;;;;;;4380242;32;20576;-62
2021/05/28 06:07:43;;;;;;;10.98;3.50;;;27.70;28.10;;;;;;4365953;32;20497;-62
2021/05/28 06:10:11;;;;;;;6.60;3.30;;;27.80;27.90;;;;;;4379372;32;20061;-63
2021/05/28 06:12:37;;;;;;;6.40;3.53;;;26.70;29.50;;;;;;4386418;32;20515;-62
2021/05/28 06:15:05;;;;;;;7.10;3.83;;;25.90;30.20;;;;;;4389448;32;20100;-62
2021/05/28 06:17:31;;;;;;;5.50;3.45;;;26.60;28.50;;;;;;4390360;32;20097;-65
2021/05/28 06:19:57;;;;;;;6.37;3.40;;;27.50;27.60;;;;;;4362374;32;20085;-64
2021/05/28 06:22:23;;;;;;;8.85;3.53;;;27.20;27.20;;;;;;4360950;32;20117;-63
2021/05/28 06:24:50;;;;;;;6.87;3.97;;;26.00;28.60;;;;;;4390228;32;20548;-63
2021/05/28 06:27:16;;;;;;;9.00;3.95;;;25.20;31.40;;;;;;4377906;32;21797;-65
2021/05/28 06:29:42;;;;;;;9.13;3.90;;;24.60;33.80;;;;;;4378350;32;20092;-66
2021/05/28 06:32:09;;;;;;;6.95;3.87;;;24.50;34.00;;;;;;4388312;32;20113;-63
2021/05/28 06:34:35;;;;;;;10.05;4.50;;;24.30;32.20;;;;;;4353322;32;21917;-67
2021/05/28 06:37:01;;;;;;;14.13;5.70;;;24.00;31.90;;;;;;4363265;32;20085;-63
2021/05/28 06:39:28;;;;;;;9.95;4.50;;;24.00;32.10;;;;;;4377374;32;20081;-63
2021/05/28 06:41:54;;;;;;;7.20;3.80;;;24.10;31.80;;;;;;4364703;32;20518;-63
2021/05/28 06:44:24;;;;;;;10.73;4.10;;;24.30;31.10;;;;;;4376453;32;20061;-63
2021/05/28 06:46:53;;;;;;;8.68;4.50;;;24.60;31.80;;;;;;4347185;32;20540;-62
2021/05/28 06:49:20;;;;;;;12.45;4.25;;;24.40;31.20;;;;;;4364563;32;20470;-62
2021/05/28 06:51:46;;;;;;;6.07;3.83;;;24.40;32.30;;;;;;4377041;32;20437;-61
2021/05/28 06:54:13;;;;;;;9.95;4.07;;;24.40;32.20;;;;;;4352175;32;20061;-62
2021/05/28 06:56:40;;;;;;;7.90;4.30;;;24.40;31.10;;;;;;4352573;32;20077;-62
2021/05/28 06:59:08;;;;;;;9.30;4.60;;;24.40;31.40;;;;;;4372985;32;20086;-63
2021/05/28 07:01:34;;;;;;;7.22;4.35;;;24.40;31.50;;;;;;4376919;32;20146;-62
2021/05/28 07:04:02;;;;;;;8.55;4.15;;;24.30;31.10;;;;;;4351940;32;20061;-63
2021/05/28 07:06:29;;;;;;;7.90;4.18;;;24.00;31.70;;;;;;4376979;32;20133;-63
2021/05/28 07:08:56;;;;;;;6.53;4.40;;;24.20;31.90;;;;;;4353068;32;20101;-62
2021/05/28 07:11:23;;;;;;;7.15;4.00;;;25.20;31.10;;;;;;4363165;32;20074;-63
2021/05/28 07:13:50;;;;;;;5.37;3.78;;;25.70;29.60;;;;;;4343478;32;20089;-62
2021/05/28 07:16:16;;;;;;;8.50;3.20;;;25.00;29.70;;;;;;4376697;32;20145;-63
2021/05/28 07:18:43;;;;;;;5.78;3.22;;;25.60;29.20;;;;;;4368394;32;20059;-63
2021/05/28 07:21:09;;;;;;;6.82;3.60;;;25.40;28.30;;;;;;4364085;32;20289;-65
2021/05/28 07:23:36;;;;;;;8.18;3.20;;;25.70;29.00;;;;;;4352028;32;20200;-62
2021/05/28 07:26:03;;;;;;;6.53;3.80;;;26.00;28.90;;;;;;4363402;32;20067;-63
2021/05/28 07:28:29;;;;;;;6.40;3.22;;;26.00;28.50;;;;;;4377085;32;20956;-63
2021/05/28 07:30:55;;;;;;;5.60;3.60;;;26.20;27.30;;;;;;4377312;32;20088;-62
2021/05/28 07:33:22;;;;;;;3.85;3.17;;;25.70;27.80;;;;;;4352484;32;20511;-64
2021/05/28 07:35:49;;;;;;;6.80;3.65;;;25.40;28.30;;;;;;4350465;32;20062;-62
2021/05/28 07:38:15;;;;;;;5.78;4.20;;;25.80;28.50;;;;;;4359120;32;20081;-63
2021/05/28 07:40:42;;;;;;;6.32;3.85;;;25.00;28.60;;;;;;4374670;32;20505;-62
2021/05/28 07:43:08;;;;;;;6.75;3.92;;;25.40;29.00;;;;;;4369615;32;20097;-64
2021/05/28 07:45:36;;;;;;;6.12;3.55;;;25.90;28.40;;;;;;4371710;32;20427;-63
2021/05/28 07:48:03;;;;;;;5.25;3.62;;;25.60;28.50;;;;;;4340287;32;20066;-62
2021/05/28 07:50:45;;;;;;;6.47;3.40;;;25.80;28.40;;;;;;4364737;32;20487;-62
2021/05/28 07:53:24;;;;;;;7.50;4.90;;;25.50;28.90;;;;;;4367420;32;20073;-65
2021/05/28 07:55:51;;;;;;;4.15;2.75;;;26.00;28.10;;;;;;4341104;32;20179;-64
2021/05/28 07:58:17;;;;;;;5.57;3.30;;;26.50;27.30;;;;;;4372712;32;20580;-64
2021/05/28 08:00:43;;;;;;;6.35;2.92;;;25.50;26.90;;;;;;4364758;32;20082;-65
2021/05/28 08:03:09;;;;;;;4.82;3.10;;;26.10;28.00;;;;;;4340069;32;20077;-65
2021/05/28 08:05:36;;;;;;;7.20;3.03;;;26.80;27.40;;;;;;4352504;32;20072;-64
2021/05/28 08:08:03;;;;;;;4.45;2.90;;;27.10;26.50;;;;;;4376848;32;20084;-68
2021/05/28 08:10:29;;;;;;;5.62;2.60;;;27.00;26.20;;;;;;4364817;32;20077;-64
2021/05/28 08:12:56;;;;;;;4.97;3.00;;;26.80;26.20;;;;;;4364665;32;20076;-64
2021/05/28 08:15:23;;;;;;;4.80;3.00;;;26.60;25.80;;;;;;4391091;32;20070;-62
2021/05/28 08:17:49;;;;;;;5.40;2.72;;;26.10;26.10;;;;;;4377193;32;20074;-62
2021/05/28 08:20:16;;;;;;;5.43;2.80;;;26.30;25.60;;;;;;4364674;32;20082;-64
2021/05/28 08:22:44;;;;;;;4.47;3.00;;;26.50;26.50;;;;;;4364845;32;20097;-62
2021/05/28 08:25:12;;;;;;;5.50;2.83;;;26.70;25.60;;;;;;4376827;32;20149;-64
2021/05/28 08:27:38;;;;;;;3.33;2.40;;;27.00;25.40;;;;;;4364991;32;20066;-63
2021/05/28 08:30:06;;;;;;;4.30;2.62;;;27.10;24.70;;;;;;4366428;32;20500;-64
2021/05/28 08:32:32;;;;;;;3.95;2.58;;;27.20;25.10;;;;;;4374929;32;20219;-63
2021/05/28 08:34:58;;;;;;;10.85;2.67;;;26.80;24.40;;;;;;4363092;32;20191;-63
2021/05/28 08:37:24;;;;;;;6.22;2.90;;;26.60;25.60;;;;;;4358816;32;20074;-63
2021/05/28 08:39:51;;;;;;;3.37;2.62;;;26.20;25.30;;;;;;4373008;32;20511;-62
2021/05/28 08:42:21;;;;;;;3.75;2.70;;;26.40;26.00;;;;;;4377209;32;20083;-64
2021/05/28 08:44:50;;;;;;;4.12;2.95;;;25.90;25.80;;;;;;4366591;32;20146;-62
2021/05/28 08:47:16;;;;;;;4.90;2.50;;;25.80;26.10;;;;;;4364844;32;20066;-61
2021/05/28 08:49:50;;;;;;;5.40;2.85;;;27.10;25.40;;;;;;4357615;32;20071;-63
2021/05/28 08:52:16;;;;;;;4.12;2.83;;;27.30;24.70;;;;;;4341954;32;20080;-63
2021/05/28 08:54:43;;;;;;;2.97;2.50;;;27.40;24.40;;;;;;4378731;32;20166;-62
2021/05/28 08:57:10;;;;;;;5.05;2.90;;;27.30;23.90;;;;;;4353704;32;20104;-62
2021/05/28 08:59:37;;;;;;;4.20;2.35;;;26.40;24.50;;;;;;4377879;32;20118;-62
2021/05/28 09:02:03;;;;;;;3.30;2.20;;;27.20;24.50;;;;;;4359759;32;20065;-63
2021/05/28 09:04:29;;;;;;;5.68;2.67;;;27.60;24.00;;;;;;4372584;32;20076;-62
2021/05/28 09:06:56;;;;;;;4.10;2.22;;;26.30;23.60;;;;;;4378450;32;20078;-62
2021/05/28 09:09:23;;;;;;;6.10;2.53;;;26.60;23.40;;;;;;4376451;32;20074;-63
2021/05/28 09:11:58;;;;;;;3.17;2.00;;;26.70;23.00;;;;;;4363487;32;20168;-63
2021/05/28 09:14:41;;;;;;;3.60;2.03;;;27.50;23.20;;;;;;4375695;32;20106;-61
2021/05/28 09:17:09;;;;;;;2.97;2.00;;;27.40;22.70;;;;;;4375210;32;20082;-64
2021/05/28 09:19:36;;;;;;;2.53;1.80;;;27.40;22.20;;;;;;4364446;32;20094;-63
2021/05/28 09:22:07;;;;;;;3.60;1.90;;;28.00;21.90;;;;;;4372630;32;20074;-63
2021/05/28 09:24:38;;;;;;;2.03;1.70;;;28.30;21.60;;;;;;4374028;32;20086;-66
2021/05/28 09:27:29;;;;;;;4.70;2.10;;;27.40;21.40;;;;;;4387867;32;20098;-63
2021/05/28 09:30:17;;;;;;;8.05;1.98;;;27.60;21.60;;;;;;4355048;32;20073;-61
2021/05/28 09:32:47;;;;;;;5.78;2.28;;;27.60;21.80;;;;;;4365078;32;20116;-62
2021/05/28 09:35:16;;;;;;;5.60;2.37;;;26.90;23.00;;;;;;4359562;32;20070;-62
2021/05/28 09:37:47;;;;;;;4.45;2.33;;;26.80;23.60;;;;;;4374669;32;20137;-60
2021/05/28 09:40:28;;;;;;;3.72;2.00;;;26.70;23.30;;;;;;4353631;32;20153;-62
2021/05/28 09:43:04;;;;;;;4.22;1.90;;;26.90;23.40;;;;;;4385824;32;20085;-61
2021/05/28 09:45:39;;;;;;;2.13;1.70;;;26.70;22.10;;;;;;4380254;32;20082;-61
2021/05/28 09:48:15;;;;;;;;;;;27.60;21.60;;;;;;4377505;32;20540;-61
2021/05/28 09:51:06;;;;;;;3.45;1.70;;;27.50;22.10;;;;;;4397010;32;20395;-62
2021/05/28 09:53:41;;;;;;;2.75;1.65;;;27.40;21.70;;;;;;4382584;32;20078;-63
2021/05/28 09:56:34;;;;;;;4.78;2.00;;;27.20;22.30;;;;;;4365699;32;20101;-62
2021/05/28 09:59:06;;;;;;;2.97;1.90;;;28.10;22.30;;;;;;4366445;32;20077;-62
2021/05/28 10:01:38;;;;;;;2.28;1.83;;;27.80;20.90;;;;;;4362646;32;20105;-62
2021/05/28 10:04:09;;;;;;;4.50;1.98;;;27.90;21.70;;;;;;4378735;32;20162;-65
2021/05/28 10:06:40;;;;;;;3.22;1.70;;;28.20;21.40;;;;;;4363934;32;20831;-63
2021/05/28 10:09:08;;;;;;;6.45;2.00;;;27.70;21.50;;;;;;4363049;32;20108;-66
2021/05/28 10:11:36;;;;;;;3.45;1.98;;;27.80;22.10;;;;;;4375737;32;20085;-64
2021/05/28 10:14:04;;;;;;;5.47;2.28;;;27.40;22.80;;;;;;4359125;32;20134;-62
2021/05/28 10:16:30;;;;;;;2.08;1.80;;;27.80;22.90;;;;;;4375127;32;20103;-63
2021/05/28 10:18:57;;;;;;;3.85;2.03;;;27.80;22.20;;;;;;4359265;32;20177;-59
2021/05/28 10:21:24;;;;;;;3.42;1.98;;;28.10;22.10;;;;;;4375725;32;20058;-62
2021/05/28 10:23:50;;;;;;;2.62;2.05;;;28.00;22.50;;;;;;4334539;32;20074;-66
2021/05/28 10:26:28;;;;;;;5.82;2.12;;;27.70;21.50;;;;;;4356518;32;20078;-62
2021/05/28 10:28:54;;;;;;;4.70;1.80;;;28.80;21.50;;;;;;4373096;32;20069;-64
2021/05/28 10:31:59;;;;;;;6.37;1.80;;;28.20;21.00;;;;;;4373513;32;20073;-62
2021/05/28 10:34:30;;;;;;;5.60;2.10;;;28.30;21.00;;;;;;4395952;32;20097;-65
2021/05/28 10:36:58;;;;;;;6.25;2.20;;;28.50;20.60;;;;;;4370862;32;20452;-65
2021/05/28 10:39:25;;;;;;;5.18;1.73;;;27.90;21.10;;;;;;4362152;32;20081;-74
2021/05/28 10:42:10;;;;;;;3.03;1.77;;;28.40;20.70;;;;;;4373503;32;20136;-75
2021/05/28 10:44:42;;;;;;;5.13;2.00;;;28.10;20.80;;;;;;4363811;32;20082;-67
2021/05/28 10:47:14;;;;;;;6.57;2.00;;;28.40;21.00;;;;;;4373570;32;20584;-68
2021/05/28 10:49:45;;;;;;;5.87;2.25;;;28.30;21.10;;;;;;4386495;32;20074;-72
2021/05/28 10:52:31;;;;;;;5.22;2.08;;;28.70;20.40;;;;;;4363458;32;20074;-67
2021/05/28 10:55:17;;;;;;;3.22;1.80;;;29.20;20.70;;;;;;4370434;32;20082;-62
2021/05/28 10:57:53;;;;;;;2.12;1.45;;;28.60;20.00;;;;;;4367328;32;20145;-64
2021/05/28 11:00:33;;;;;;;4.65;1.70;;;28.20;18.60;;;;;;4370626;32;20087;-66
2021/05/28 11:03:11;;;;;;;4.03;2.25;;;28.50;18.70;;;;;;4363141;32;20097;-72
2021/05/28 11:05:47;;;;;;;6.95;2.35;;;29.00;20.20;;;;;;4380215;32;20085;-67
2021/05/28 11:08:43;;;;;;;4.40;2.40;;;29.30;20.00;;;;;;4360081;32;20090;-66
2021/05/28 11:11:36;;;;;;;4.53;1.90;;;28.70;20.80;;;;;;4368932;32;20617;-65
2021/05/28 11:14:13;;;;;;;3.50;2.10;;;28.60;22.50;;;;;;4379888;32;20089;-64
2021/05/28 11:16:59;;;;;;;4.05;2.03;;;28.20;21.90;;;;;;4363621;32;20104;-63
2021/05/28 11:19:42;;;;;;;3.05;2.20;;;28.50;22.00;;;;;;4378703;32;20071;-64
2021/05/28 11:22:15;;;;;;;4.57;2.12;;;28.30;21.60;;;;;;4361639;32;20141;-65
2021/05/28 11:25:06;;;;;;;4.37;1.73;;;28.50;21.80;;;;;;4355187;32;20163;-67
2021/05/28 11:27:32;;;;;;;5.03;2.20;;;29.20;21.50;;;;;;4373154;32;20090;-66
2021/05/28 11:30:05;;;;;;;3.95;2.28;;;28.30;22.20;;;;;;4379133;32;20074;-66
2021/05/28 11:32:38;;;;;;;3.58;2.30;;;28.10;22.50;;;;;;4376870;32;20090;-65
2021/05/28 11:35:16;;;;;;;9.25;1.95;;;28.20;22.20;;;;;;4370892;32;20101;-64
2021/05/28 11:37:48;;;;;;;4.32;2.05;;;28.20;21.60;;;;;;4384874;32;20078;-65
2021/05/28 11:40:20;;;;;;;6.55;2.20;;;28.00;22.60;;;;;;4365148;32;20070;-66
2021/05/28 11:42:47;;;;;;;10.90;2.37;;;28.20;22.50;;;;;;4357252;32;20081;-65
2021/05/28 11:45:15;;;;;;;7.97;2.75;;;27.90;23.30;;;;;;4354926;32;20074;-64
2021/05/28 11:47:41;;;;;;;2.30;1.73;;;28.40;23.00;;;;;;4363452;32;20096;-65
2021/05/28 11:50:17;;;;;;;2.78;1.90;;;28.80;22.60;;;;;;4375592;32;20089;-64
2021/05/28 11:53:03;;;;;;;4.07;2.42;;;28.60;21.70;;;;;;4344056;32;20076;-65
2021/05/28 11:55:31;;;;;;;3.92;2.08;;;28.70;23.70;;;;;;4356478;32;20074;-64
2021/05/28 11:57:59;;;;;;;4.90;1.92;;;28.20;23.60;;;;;;4366355;32;20059;-65
2021/05/28 12:00:27;;;;;;;4.85;1.75;;;28.70;21.70;;;;;;4338231;32;20089;-65
2021/05/28 12:02:57;;;;;;;3.00;2.12;;;28.90;22.30;;;;;;4359924;32;20077;-64
2021/05/28 12:05:26;;;;;;;4.05;2.03;;;28.70;21.30;;;;;;4366086;32;20088;-66
2021/05/28 12:07:55;;;;;;;4.35;1.98;;;28.50;21.30;;;;;;4386050;32;20117;-65
2021/05/28 12:10:26;;;;;;;4.75;2.08;;;29.30;20.80;;;;;;4376418;32;20479;-65
2021/05/28 12:13:00;;;;;;;5.03;2.15;;;29.40;20.00;;;;;;4393378;32;20089;-64
2021/05/28 12:15:34;;;;;;;1.90;1.75;;;28.70;21.40;;;;;;4392904;32;20069;-65
2021/05/28 12:18:12;;;;;;;2.72;1.92;;;28.40;20.50;;;;;;4375988;32;20070;-70
2021/05/28 12:20:39;;;;;;;5.12;2.50;;;28.80;20.70;;;;;;4391001;32;20066;-63
2021/05/28 12:23:12;;;;;;;4.57;2.20;;;29.20;23.00;;;;;;4393587;32;20462;-69
2021/05/28 12:25:49;;;;;;;4.00;2.20;;;29.00;22.60;;;;;;4396012;32;20062;-68
2021/05/28 12:28:18;;;;;;;5.22;2.20;;;28.20;23.50;;;;;;4369194;32;20236;-74
2021/05/28 12:31:11;;;;;;;4.35;2.10;;;28.50;24.40;;;;;;4383297;32;20065;-75
2021/05/28 12:33:43;;;;;;;2.30;1.85;;;28.30;24.40;;;;;;4382010;32;20149;-71
2021/05/28 12:36:11;;;;;;;5.28;1.98;;;28.40;23.50;;;;;;4359957;32;20108;-74
2021/05/28 12:38:46;;;;;;;3.60;1.90;;;28.60;23.60;;;;;;4365714;32;20173;-74
2021/05/28 12:41:27;;;;;;;5.55;2.45;;;29.20;22.90;;;;;;4369320;32;20577;-67
2021/05/28 12:43:55;;;;;;;6.93;2.33;;;29.60;23.80;;;;;;4368715;32;20085;-70
2021/05/28 12:46:34;;;;;;;5.15;2.50;;;28.90;21.90;;;;;;4371196;32;20165;-73
2021/05/28 12:49:11;;;;;;;5.35;2.22;;;29.00;22.40;;;;;;4376346;32;20074;-74
2021/05/28 12:51:48;;;;;;;3.72;2.05;;;29.00;22.40;;;;;;4363400;32;20150;-71
2021/05/28 12:54:24;;;;;;;6.35;2.60;;;28.90;22.40;;;;;;4372370;32;20154;-74
2021/05/28 12:56:51;;;;;;;6.65;2.60;;;29.00;22.30;;;;;;4394888;32;20085;-73
2021/05/28 12:59:19;;;;;;;2.42;1.92;;;29.10;22.60;;;;;;4366195;32;20156;-69